Queen City, Vermont
Current Conditions -  °F | °C
As of 4:54 AM on Tuesday 21 Oct 2014 (Local Time) from KBTV Reporting Station
Light Rain Light Rain  
Wind Chill: 44°   Ceiling: 6000
Heat Index: 46°   Visibility: 10mi
Dew Point: 41°   Wind: 5mph
Humidity: 83%   Direction: 70°ENE
Pressure: 29.93"   Gusts: NA
Location:  44.446°N, 73.1725°W
Report Text: KBTV 210854Z 07004KT 10SM -RA BKN060 OVC070 08/05 A2993 RMK AO2 SLP137 P0002 60002 T00780050 53003
Loading
Personal Weather Stations






























Interactive Weather Map
Tropical Storm Tracking
New forecast layout! Learn more

10-Day Weather Forecast

Advertisements
Track Severe Weather on mobile